Página principal
Imagens de satélite Previsões 15 diasClimaMeteorologia maritima Ciclones Descargas eléctricas AeroportosFAQ Notícias Sobre
Tempo : Europa África América do Norte América do Sul Ásia Austrália-Oceania Outros
Línguas Contacto

Cambridge, Inglaterra

latitude: 52-12N, longitude: 000-11E, altura: 15 m


METAR: EGSC 231920Z 05007KT 010V090 CAVOK 23/14 Q1019
short-TAF: EGSC 231658Z 2318/2321 06009KT 9999 FEW045
long-TAF: em falta

Hora: 05:21 (04:21 UTC)

Observação actual do tempo

O boletim foi feito há 9 horas e 1 minutos, às 19:20 UTC  
Vento 07 kt de nordeste, variando entre norte e este
Temperatura 23°C
Humidade 57%
Pressão 1019 hPa
Visibilidade 10 km ou mais
sem nuvens abaixo de 1500 metros e sem cumulonimbus

Mudar unidades

Previsão

O boletim foi feito há 11 horas e 6 minutos, às 17:15 UTC  
Previsão válida de 23 às 18 UTC a 23 às 21 UTC
Vento 09 kt de es-nordeste
Visibilidade 10 km ou mais
Poucas nuvens a uma altura de 4500 ft
As informações contidas neste sítio estão sujeitas a uma declaração de exoneração de responsabilidade
Tempo : Europa África América do Norte América do Sul Ásia Austrália-Oceania Outros
Imagens de satélite Previsões 15 diasClimaMeteorologia maritima Ciclones Descargas eléctricas AeroportosFAQ Línguas Contacto Notícias Sobre